sensor_id;sensor_type;location;lat;lon;timestamp;temperature;humidity
15749;DHT22;7976;52.526;13.326;2022-08-03T00:00:57;22.20;99.60
15749;DHT22;7976;52.526;13.326;2022-08-03T00:03:25;22.20;99.60
15749;DHT22;7976;52.526;13.326;2022-08-03T00:05:52;22.20;99.60
15749;DHT22;7976;52.526;13.326;2022-08-03T00:08:19;22.10;99.60
15749;DHT22;7976;52.526;13.326;2022-08-03T00:10:46;22.10;99.70
15749;DHT22;7976;52.526;13.326;2022-08-03T00:13:13;22.10;99.70
15749;DHT22;7976;52.526;13.326;2022-08-03T00:15:41;22.10;99.80
15749;DHT22;7976;52.526;13.326;2022-08-03T00:18:08;22.10;99.90
15749;DHT22;7976;52.526;13.326;2022-08-03T00:20:36;22.00;99.90
15749;DHT22;7976;52.526;13.326;2022-08-03T00:23:03;22.00;99.90
15749;DHT22;7976;52.526;13.326;2022-08-03T00:25:31;22.00;99.90
15749;DHT22;7976;52.526;13.326;2022-08-03T00:27:58;22.00;99.90
15749;DHT22;7976;52.526;13.326;2022-08-03T00:30:25;22.00;99.90
15749;DHT22;7976;52.526;13.326;2022-08-03T00:32:52;22.00;99.90
15749;DHT22;7976;52.526;13.326;2022-08-03T00:35:19;22.00;99.90
15749;DHT22;7976;52.526;13.326;2022-08-03T00:37:47;22.00;99.90
15749;DHT22;7976;52.526;13.326;2022-08-03T00:40:15;22.00;99.90
15749;DHT22;7976;52.526;13.326;2022-08-03T00:42:51;22.00;99.90
15749;DHT22;7976;52.526;13.326;2022-08-03T00:45:20;22.00;99.90
15749;DHT22;7976;52.526;13.326;2022-08-03T00:47:48;22.00;99.90
15749;DHT22;7976;52.526;13.326;2022-08-03T00:50:16;22.00;99.90
15749;DHT22;7976;52.526;13.326;2022-08-03T00:52:46;22.00;99.90
15749;DHT22;7976;52.526;13.326;2022-08-03T00:55:13;22.00;99.90
15749;DHT22;7976;52.526;13.326;2022-08-03T00:57:41;22.00;99.90
15749;DHT22;7976;52.526;13.326;2022-08-03T01:00:11;22.00;99.90
15749;DHT22;7976;52.526;13.326;2022-08-03T01:02:40;22.00;99.90
15749;DHT22;7976;52.526;13.326;2022-08-03T01:05:07;22.00;99.90
15749;DHT22;7976;52.526;13.326;2022-08-03T01:07:41;22.00;99.90
15749;DHT22;7976;52.526;13.326;2022-08-03T01:10:25;21.90;99.90
15749;DHT22;7976;52.526;13.326;2022-08-03T01:13:03;21.90;99.90
15749;DHT22;7976;52.526;13.326;2022-08-03T01:15:47;21.90;99.90
15749;DHT22;7976;52.526;13.326;2022-08-03T01:18:23;21.80;99.90
15749;DHT22;7976;52.526;13.326;2022-08-03T01:20:55;21.80;99.90
15749;DHT22;7976;52.526;13.326;2022-08-03T01:23:36;21.80;99.90
15749;DHT22;7976;52.526;13.326;2022-08-03T01:29:51;21.80;99.90
15749;DHT22;7976;52.526;13.326;2022-08-03T01:32:30;21.80;99.90
15749;DHT22;7976;52.526;13.326;2022-08-03T01:35:05;21.80;99.90
15749;DHT22;7976;52.526;13.326;2022-08-03T01:37:38;21.80;99.90
15749;DHT22;7976;52.526;13.326;2022-08-03T01:40:10;21.80;99.90
15749;DHT22;7976;52.526;13.326;2022-08-03T01:42:40;21.80;99.90
15749;DHT22;7976;52.526;13.326;2022-08-03T01:45:12;21.80;99.90
15749;DHT22;7976;52.526;13.326;2022-08-03T01:47:43;21.80;99.90
15749;DHT22;7976;52.526;13.326;2022-08-03T01:50:13;21.80;99.90
15749;DHT22;7976;52.526;13.326;2022-08-03T01:52:43;21.80;99.90
15749;DHT22;7976;52.526;13.326;2022-08-03T01:55:12;21.80;99.90
15749;DHT22;7976;52.526;13.326;2022-08-03T01:57:42;21.80;99.90
15749;DHT22;7976;52.526;13.326;2022-08-03T02:00:14;21.80;99.90
15749;DHT22;7976;52.526;13.326;2022-08-03T02:02:42;21.90;99.90
15749;DHT22;7976;52.526;13.326;2022-08-03T02:05:14;21.90;99.90
15749;DHT22;7976;52.526;13.326;2022-08-03T02:07:45;21.90;99.90
15749;DHT22;7976;52.526;13.326;2022-08-03T02:10:15;21.90;99.90
15749;DHT22;7976;52.526;13.326;2022-08-03T02:12:46;21.90;99.90
15749;DHT22;7976;52.526;13.326;2022-08-03T02:15:18;21.90;99.90
15749;DHT22;7976;52.526;13.326;2022-08-03T02:17:46;21.90;99.90
15749;DHT22;7976;52.526;13.326;2022-08-03T02:20:15;21.90;99.90
15749;DHT22;7976;52.526;13.326;2022-08-03T02:22:44;21.90;99.90
15749;DHT22;7976;52.526;13.326;2022-08-03T02:25:13;21.90;99.90
15749;DHT22;7976;52.526;13.326;2022-08-03T02:27:47;21.90;99.90
15749;DHT22;7976;52.526;13.326;2022-08-03T02:30:19;21.90;99.90
15749;DHT22;7976;52.526;13.326;2022-08-03T02:32:51;21.90;99.90
15749;DHT22;7976;52.526;13.326;2022-08-03T02:35:24;21.90;99.90
15749;DHT22;7976;52.526;13.326;2022-08-03T02:37:57;21.90;99.90
15749;DHT22;7976;52.526;13.326;2022-08-03T02:40:29;21.90;99.90
15749;DHT22;7976;52.526;13.326;2022-08-03T02:43:01;21.90;99.90
15749;DHT22;7976;52.526;13.326;2022-08-03T02:45:34;21.80;99.90
15749;DHT22;7976;52.526;13.326;2022-08-03T02:48:08;21.80;99.90
15749;DHT22;7976;52.526;13.326;2022-08-03T02:50:37;21.80;99.90
15749;DHT22;7976;52.526;13.326;2022-08-03T02:53:06;21.80;99.90
15749;DHT22;7976;52.526;13.326;2022-08-03T02:55:34;21.80;99.90
15749;DHT22;7976;52.526;13.326;2022-08-03T02:58:03;21.80;99.90
15749;DHT22;7976;52.526;13.326;2022-08-03T03:00:33;21.70;99.90
15749;DHT22;7976;52.526;13.326;2022-08-03T03:03:01;21.70;99.90
15749;DHT22;7976;52.526;13.326;2022-08-03T03:05:31;21.70;99.90
15749;DHT22;7976;52.526;13.326;2022-08-03T03:07:57;21.70;99.90
15749;DHT22;7976;52.526;13.326;2022-08-03T03:10:25;21.70;99.90
15749;DHT22;7976;52.526;13.326;2022-08-03T03:12:54;21.70;99.90
15749;DHT22;7976;52.526;13.326;2022-08-03T03:15:23;21.70;99.90
15749;DHT22;7976;52.526;13.326;2022-08-03T03:17:53;21.70;99.90
15749;DHT22;7976;52.526;13.326;2022-08-03T03:20:22;21.70;99.90
15749;DHT22;7976;52.526;13.326;2022-08-03T03:22:51;21.70;99.90
15749;DHT22;7976;52.526;13.326;2022-08-03T03:25:19;21.70;99.90
15749;DHT22;7976;52.526;13.326;2022-08-03T03:27:48;21.70;99.90
15749;DHT22;7976;52.526;13.326;2022-08-03T03:30:15;21.70;99.90
15749;DHT22;7976;52.526;13.326;2022-08-03T03:32:42;21.70;99.90
15749;DHT22;7976;52.526;13.326;2022-08-03T03:35:10;21.70;99.90
15749;DHT22;7976;52.526;13.326;2022-08-03T03:37:39;21.70;99.90
15749;DHT22;7976;52.526;13.326;2022-08-03T03:40:06;21.70;99.90
15749;DHT22;7976;52.526;13.326;2022-08-03T03:42:34;21.70;99.90
15749;DHT22;7976;52.526;13.326;2022-08-03T03:45:02;21.60;99.90
15749;DHT22;7976;52.526;13.326;2022-08-03T03:47:30;21.60;99.90
15749;DHT22;7976;52.526;13.326;2022-08-03T03:49:59;21.60;99.90
15749;DHT22;7976;52.526;13.326;2022-08-03T03:52:28;21.50;99.90
15749;DHT22;7976;52.526;13.326;2022-08-03T03:54:55;21.50;99.90
15749;DHT22;7976;52.526;13.326;2022-08-03T03:57:22;21.50;99.90
15749;DHT22;7976;52.526;13.326;2022-08-03T03:59:48;21.50;99.90
15749;DHT22;7976;52.526;13.326;2022-08-03T04:02:15;21.50;99.90
15749;DHT22;7976;52.526;13.326;2022-08-03T04:04:42;21.50;99.90
15749;DHT22;7976;52.526;13.326;2022-08-03T04:07:33;21.50;99.90
15749;DHT22;7976;52.526;13.326;2022-08-03T04:10:27;21.50;99.90
15749;DHT22;7976;52.526;13.326;2022-08-03T04:13:17;21.50;99.90
15749;DHT22;7976;52.526;13.326;2022-08-03T04:15:47;21.50;99.90
15749;DHT22;7976;52.526;13.326;2022-08-03T04:18:16;21.50;99.90
15749;DHT22;7976;52.526;13.326;2022-08-03T04:20:46;21.50;99.90
15749;DHT22;7976;52.526;13.326;2022-08-03T04:23:19;21.60;99.90
15749;DHT22;7976;52.526;13.326;2022-08-03T04:25:52;21.60;99.90
15749;DHT22;7976;52.526;13.326;2022-08-03T04:28:22;21.60;99.90
15749;DHT22;7976;52.526;13.326;2022-08-03T04:30:50;21.60;99.90
15749;DHT22;7976;52.526;13.326;2022-08-03T04:33:20;21.60;99.90
15749;DHT22;7976;52.526;13.326;2022-08-03T04:35:51;21.60;99.90
15749;DHT22;7976;52.526;13.326;2022-08-03T04:38:24;21.60;99.90
15749;DHT22;7976;52.526;13.326;2022-08-03T04:40:55;21.60;99.90
15749;DHT22;7976;52.526;13.326;2022-08-03T04:43:23;21.60;99.90
15749;DHT22;7976;52.526;13.326;2022-08-03T04:45:52;21.50;99.90
15749;DHT22;7976;52.526;13.326;2022-08-03T04:48:21;21.50;99.90
15749;DHT22;7976;52.526;13.326;2022-08-03T04:50:48;21.60;99.90
15749;DHT22;7976;52.526;13.326;2022-08-03T04:53:15;21.60;99.90
15749;DHT22;7976;52.526;13.326;2022-08-03T04:55:44;21.60;99.90
15749;DHT22;7976;52.526;13.326;2022-08-03T04:58:11;21.60;99.90
15749;DHT22;7976;52.526;13.326;2022-08-03T05:00:37;21.60;99.90
15749;DHT22;7976;52.526;13.326;2022-08-03T05:03:04;21.60;99.90
15749;DHT22;7976;52.526;13.326;2022-08-03T05:05:31;21.60;99.90
15749;DHT22;7976;52.526;13.326;2022-08-03T05:07:58;21.70;99.90
15749;DHT22;7976;52.526;13.326;2022-08-03T05:10:25;21.70;99.90
15749;DHT22;7976;52.526;13.326;2022-08-03T05:12:53;21.70;99.90
15749;DHT22;7976;52.526;13.326;2022-08-03T05:15:20;21.80;99.90
15749;DHT22;7976;52.526;13.326;2022-08-03T05:17:47;21.80;99.90
15749;DHT22;7976;52.526;13.326;2022-08-03T05:20:14;21.80;99.90
15749;DHT22;7976;52.526;13.326;2022-08-03T05:22:40;21.80;99.90
15749;DHT22;7976;52.526;13.326;2022-08-03T05:25:08;21.90;99.90
15749;DHT22;7976;52.526;13.326;2022-08-03T05:27:34;21.90;99.90
15749;DHT22;7976;52.526;13.326;2022-08-03T05:30:04;21.90;99.90
15749;DHT22;7976;52.526;13.326;2022-08-03T05:32:31;22.00;99.90
15749;DHT22;7976;52.526;13.326;2022-08-03T05:34:58;22.00;99.90
15749;DHT22;7976;52.526;13.326;2022-08-03T05:37:25;22.10;99.90
15749;DHT22;7976;52.526;13.326;2022-08-03T05:39:52;22.10;99.90
15749;DHT22;7976;52.526;13.326;2022-08-03T05:42:18;22.20;99.90
15749;DHT22;7976;52.526;13.326;2022-08-03T05:44:45;22.30;99.90
15749;DHT22;7976;52.526;13.326;2022-08-03T05:47:13;22.30;99.90
15749;DHT22;7976;52.526;13.326;2022-08-03T05:49:40;22.30;99.90
15749;DHT22;7976;52.526;13.326;2022-08-03T05:52:07;22.40;99.90
15749;DHT22;7976;52.526;13.326;2022-08-03T05:54:34;22.40;99.90
15749;DHT22;7976;52.526;13.326;2022-08-03T05:57:01;22.50;99.90
15749;DHT22;7976;52.526;13.326;2022-08-03T05:59:27;22.50;99.90
15749;DHT22;7976;52.526;13.326;2022-08-03T06:01:54;22.50;99.90
15749;DHT22;7976;52.526;13.326;2022-08-03T06:04:22;22.60;99.90
15749;DHT22;7976;52.526;13.326;2022-08-03T06:06:49;22.60;99.90
15749;DHT22;7976;52.526;13.326;2022-08-03T06:09:16;22.70;99.90
15749;DHT22;7976;52.526;13.326;2022-08-03T06:11:43;22.70;99.90
15749;DHT22;7976;52.526;13.326;2022-08-03T06:14:09;22.80;99.90
15749;DHT22;7976;52.526;13.326;2022-08-03T06:16:36;22.80;99.90
15749;DHT22;7976;52.526;13.326;2022-08-03T06:19:03;22.90;99.90
15749;DHT22;7976;52.526;13.326;2022-08-03T06:21:31;23.00;99.90
15749;DHT22;7976;52.526;13.326;2022-08-03T06:23:58;23.00;99.90
15749;DHT22;7976;52.526;13.326;2022-08-03T06:26:26;23.10;99.90
15749;DHT22;7976;52.526;13.326;2022-08-03T06:28:54;23.10;99.90
15749;DHT22;7976;52.526;13.326;2022-08-03T06:31:25;23.20;99.90
15749;DHT22;7976;52.526;13.326;2022-08-03T06:33:53;23.30;99.70
15749;DHT22;7976;52.526;13.326;2022-08-03T06:36:20;23.40;99.50
15749;DHT22;7976;52.526;13.326;2022-08-03T06:38:48;23.50;99.40
15749;DHT22;7976;52.526;13.326;2022-08-03T06:41:15;23.60;99.30
15749;DHT22;7976;52.526;13.326;2022-08-03T06:43:42;23.60;99.20
15749;DHT22;7976;52.526;13.326;2022-08-03T06:46:09;23.70;99.10
15749;DHT22;7976;52.526;13.326;2022-08-03T06:48:35;23.90;98.90
15749;DHT22;7976;52.526;13.326;2022-08-03T06:51:02;24.00;98.80
15749;DHT22;7976;52.526;13.326;2022-08-03T06:53:29;24.10;98.70
15749;DHT22;7976;52.526;13.326;2022-08-03T06:55:57;24.20;98.50
15749;DHT22;7976;52.526;13.326;2022-08-03T06:58:24;24.30;98.30
15749;DHT22;7976;52.526;13.326;2022-08-03T07:00:51;24.30;98.20
15749;DHT22;7976;52.526;13.326;2022-08-03T07:03:18;24.40;98.00
15749;DHT22;7976;52.526;13.326;2022-08-03T07:05:45;24.50;98.00
15749;DHT22;7976;52.526;13.326;2022-08-03T07:08:13;24.60;98.00
15749;DHT22;7976;52.526;13.326;2022-08-03T07:10:40;24.70;98.00
15749;DHT22;7976;52.526;13.326;2022-08-03T07:13:09;24.80;98.00
15749;DHT22;7976;52.526;13.326;2022-08-03T07:15:35;24.90;98.00
15749;DHT22;7976;52.526;13.326;2022-08-03T07:18:02;25.00;97.90
15749;DHT22;7976;52.526;13.326;2022-08-03T07:20:29;25.10;98.00
15749;DHT22;7976;52.526;13.326;2022-08-03T07:22:56;25.20;98.00
15749;DHT22;7976;52.526;13.326;2022-08-03T07:25:23;25.30;98.00
15749;DHT22;7976;52.526;13.326;2022-08-03T07:27:50;25.40;98.00
15749;DHT22;7976;52.526;13.326;2022-08-03T07:30:18;25.40;98.10
15749;DHT22;7976;52.526;13.326;2022-08-03T07:32:45;25.50;98.00
15749;DHT22;7976;52.526;13.326;2022-08-03T07:35:12;25.60;98.00
15749;DHT22;7976;52.526;13.326;2022-08-03T07:37:38;25.60;97.80
15749;DHT22;7976;52.526;13.326;2022-08-03T07:40:06;25.70;97.80
15749;DHT22;7976;52.526;13.326;2022-08-03T07:42:33;25.80;97.70
15749;DHT22;7976;52.526;13.326;2022-08-03T07:45:00;25.80;97.70
15749;DHT22;7976;52.526;13.326;2022-08-03T07:47:30;25.90;97.60
15749;DHT22;7976;52.526;13.326;2022-08-03T07:49:57;26.00;97.40
15749;DHT22;7976;52.526;13.326;2022-08-03T07:52:24;26.10;97.50
15749;DHT22;7976;52.526;13.326;2022-08-03T07:55:08;26.10;97.30
15749;DHT22;7976;52.526;13.326;2022-08-03T07:57:36;26.20;97.10
15749;DHT22;7976;52.526;13.326;2022-08-03T08:00:05;26.30;97.00
15749;DHT22;7976;52.526;13.326;2022-08-03T08:02:42;26.40;96.80
15749;DHT22;7976;52.526;13.326;2022-08-03T08:05:10;26.40;96.70
15749;DHT22;7976;52.526;13.326;2022-08-03T08:07:38;26.40;96.60
15749;DHT22;7976;52.526;13.326;2022-08-03T08:10:06;26.50;96.70
15749;DHT22;7976;52.526;13.326;2022-08-03T08:12:34;26.60;96.70
15749;DHT22;7976;52.526;13.326;2022-08-03T08:15:02;26.60;96.70
15749;DHT22;7976;52.526;13.326;2022-08-03T08:18:06;26.70;96.60
15749;DHT22;7976;52.526;13.326;2022-08-03T08:20:34;26.80;96.20
15749;DHT22;7976;52.526;13.326;2022-08-03T08:23:04;26.80;96.00
15749;DHT22;7976;52.526;13.326;2022-08-03T08:25:32;26.90;96.00
15749;DHT22;7976;52.526;13.326;2022-08-03T08:27:59;26.90;95.80
15749;DHT22;7976;52.526;13.326;2022-08-03T08:30:29;27.00;95.70
15749;DHT22;7976;52.526;13.326;2022-08-03T08:32:57;27.10;95.70
15749;DHT22;7976;52.526;13.326;2022-08-03T08:35:25;27.10;95.50
15749;DHT22;7976;52.526;13.326;2022-08-03T08:37:52;27.20;95.50
15749;DHT22;7976;52.526;13.326;2022-08-03T08:40:20;27.20;95.30
15749;DHT22;7976;52.526;13.326;2022-08-03T08:42:48;27.30;95.00
15749;DHT22;7976;52.526;13.326;2022-08-03T08:45:15;27.30;94.80
15749;DHT22;7976;52.526;13.326;2022-08-03T08:47:45;27.40;94.60
15749;DHT22;7976;52.526;13.326;2022-08-03T08:50:14;27.50;94.40
15749;DHT22;7976;52.526;13.326;2022-08-03T08:52:48;27.50;94.30
15749;DHT22;7976;52.526;13.326;2022-08-03T08:55:19;27.60;94.30
15749;DHT22;7976;52.526;13.326;2022-08-03T08:57:51;27.60;94.30
15749;DHT22;7976;52.526;13.326;2022-08-03T09:00:23;27.70;94.20
15749;DHT22;7976;52.526;13.326;2022-08-03T09:02:50;27.70;93.80
15749;DHT22;7976;52.526;13.326;2022-08-03T09:05:18;27.80;93.80
15749;DHT22;7976;52.526;13.326;2022-08-03T09:07:47;27.80;93.30
15749;DHT22;7976;52.526;13.326;2022-08-03T09:10:16;27.90;93.40
15749;DHT22;7976;52.526;13.326;2022-08-03T09:12:47;27.90;93.40
15749;DHT22;7976;52.526;13.326;2022-08-03T09:15:18;28.00;93.50
15749;DHT22;7976;52.526;13.326;2022-08-03T09:17:47;28.00;93.20
15749;DHT22;7976;52.526;13.326;2022-08-03T09:20:14;28.00;93.10
15749;DHT22;7976;52.526;13.326;2022-08-03T09:22:57;28.00;93.20
15749;DHT22;7976;52.526;13.326;2022-08-03T09:25:29;28.00;93.20
15749;DHT22;7976;52.526;13.326;2022-08-03T09:28:06;28.00;93.20
15749;DHT22;7976;52.526;13.326;2022-08-03T09:30:35;28.10;92.90
15749;DHT22;7976;52.526;13.326;2022-08-03T09:33:04;28.10;93.00
15749;DHT22;7976;52.526;13.326;2022-08-03T09:35:39;28.20;93.00
15749;DHT22;7976;52.526;13.326;2022-08-03T09:38:10;28.20;92.80
15749;DHT22;7976;52.526;13.326;2022-08-03T09:40:38;28.30;92.60
15749;DHT22;7976;52.526;13.326;2022-08-03T09:43:06;28.30;92.50
15749;DHT22;7976;52.526;13.326;2022-08-03T09:45:33;28.40;92.40
15749;DHT22;7976;52.526;13.326;2022-08-03T09:48:20;28.40;92.60
15749;DHT22;7976;52.526;13.326;2022-08-03T09:50:53;28.50;92.50
15749;DHT22;7976;52.526;13.326;2022-08-03T09:53:22;28.50;92.50
15749;DHT22;7976;52.526;13.326;2022-08-03T09:55:51;28.60;92.20
15749;DHT22;7976;52.526;13.326;2022-08-03T09:58:20;28.70;91.70
15749;DHT22;7976;52.526;13.326;2022-08-03T10:00:58;28.90;91.40
15749;DHT22;7976;52.526;13.326;2022-08-03T10:03:29;29.10;91.10
15749;DHT22;7976;52.526;13.326;2022-08-03T10:06:09;29.20;90.30
15749;DHT22;7976;52.526;13.326;2022-08-03T10:08:41;29.30;90.40
15749;DHT22;7976;52.526;13.326;2022-08-03T10:11:08;29.50;90.40
15749;DHT22;7976;52.526;13.326;2022-08-03T10:13:35;29.50;90.30
15749;DHT22;7976;52.526;13.326;2022-08-03T10:16:04;29.60;90.30
15749;DHT22;7976;52.526;13.326;2022-08-03T10:18:32;29.70;90.30
15749;DHT22;7976;52.526;13.326;2022-08-03T10:21:03;29.70;90.10
15749;DHT22;7976;52.526;13.326;2022-08-03T10:23:33;29.80;89.80
15749;DHT22;7976;52.526;13.326;2022-08-03T10:26:03;29.90;89.70
15749;DHT22;7976;52.526;13.326;2022-08-03T10:28:35;29.90;89.50
15749;DHT22;7976;52.526;13.326;2022-08-03T10:31:07;30.00;89.50
15749;DHT22;7976;52.526;13.326;2022-08-03T10:33:37;30.10;89.60
15749;DHT22;7976;52.526;13.326;2022-08-03T10:36:09;30.20;89.50
15749;DHT22;7976;52.526;13.326;2022-08-03T10:38:42;30.30;89.50
15749;DHT22;7976;52.526;13.326;2022-08-03T10:41:13;30.30;88.90
15749;DHT22;7976;52.526;13.326;2022-08-03T10:43:46;30.30;88.50
15749;DHT22;7976;52.526;13.326;2022-08-03T10:46:18;30.30;88.00
15749;DHT22;7976;52.526;13.326;2022-08-03T10:48:48;30.40;88.00
15749;DHT22;7976;52.526;13.326;2022-08-03T10:51:18;30.40;87.80
15749;DHT22;7976;52.526;13.326;2022-08-03T10:53:46;30.60;88.10
15749;DHT22;7976;52.526;13.326;2022-08-03T10:56:39;30.60;87.80
15749;DHT22;7976;52.526;13.326;2022-08-03T10:59:56;30.70;87.80
15749;DHT22;7976;52.526;13.326;2022-08-03T11:03:01;30.80;87.80
15749;DHT22;7976;52.526;13.326;2022-08-03T11:05:35;30.90;87.40
15749;DHT22;7976;52.526;13.326;2022-08-03T11:08:23;30.90;85.70
15749;DHT22;7976;52.526;13.326;2022-08-03T11:10:54;30.90;85.70
15749;DHT22;7976;52.526;13.326;2022-08-03T11:13:25;30.90;85.70
15749;DHT22;7976;52.526;13.326;2022-08-03T11:15:57;30.90;86.00
15749;DHT22;7976;52.526;13.326;2022-08-03T11:18:26;30.90;86.30
15749;DHT22;7976;52.526;13.326;2022-08-03T11:20:54;30.90;86.50
15749;DHT22;7976;52.526;13.326;2022-08-03T11:23:43;30.80;86.20
15749;DHT22;7976;52.526;13.326;2022-08-03T11:26:13;30.80;85.20
15749;DHT22;7976;52.526;13.326;2022-08-03T11:28:43;30.80;85.70
15749;DHT22;7976;52.526;13.326;2022-08-03T11:31:44;30.90;85.70
15749;DHT22;7976;52.526;13.326;2022-08-03T11:34:14;30.90;85.60
15749;DHT22;7976;52.526;13.326;2022-08-03T11:37:21;31.00;85.60
15749;DHT22;7976;52.526;13.326;2022-08-03T11:39:52;30.90;85.60
15749;DHT22;7976;52.526;13.326;2022-08-03T11:42:43;31.00;85.40
15749;DHT22;7976;52.526;13.326;2022-08-03T11:45:13;31.00;85.50
15749;DHT22;7976;52.526;13.326;2022-08-03T11:47:41;31.00;85.40
15749;DHT22;7976;52.526;13.326;2022-08-03T11:50:09;31.10;85.20
15749;DHT22;7976;52.526;13.326;2022-08-03T11:52:38;31.10;84.30
15749;DHT22;7976;52.526;13.326;2022-08-03T11:55:13;31.10;84.50
15749;DHT22;7976;52.526;13.326;2022-08-03T11:57:43;31.20;84.60
15749;DHT22;7976;52.526;13.326;2022-08-03T12:00:27;31.20;84.50
15749;DHT22;7976;52.526;13.326;2022-08-03T12:03:01;31.30;84.80
15749;DHT22;7976;52.526;13.326;2022-08-03T12:05:34;31.30;85.20
15749;DHT22;7976;52.526;13.326;2022-08-03T12:08:04;31.30;85.70
15749;DHT22;7976;52.526;13.326;2022-08-03T12:10:32;31.30;85.20
15749;DHT22;7976;52.526;13.326;2022-08-03T12:13:01;31.20;85.10
15749;DHT22;7976;52.526;13.326;2022-08-03T12:15:32;31.20;84.80
15749;DHT22;7976;52.526;13.326;2022-08-03T12:18:00;31.10;84.50
15749;DHT22;7976;52.526;13.326;2022-08-03T12:20:31;31.10;84.60
15749;DHT22;7976;52.526;13.326;2022-08-03T12:23:02;31.10;84.30
15749;DHT22;7976;52.526;13.326;2022-08-03T12:25:31;31.20;84.30
15749;DHT22;7976;52.526;13.326;2022-08-03T12:28:10;31.20;84.50
15749;DHT22;7976;52.526;13.326;2022-08-03T12:30:42;31.20;84.80
15749;DHT22;7976;52.526;13.326;2022-08-03T12:33:12;31.20;84.60
15749;DHT22;7976;52.526;13.326;2022-08-03T12:35:45;31.20;84.80
15749;DHT22;7976;52.526;13.326;2022-08-03T12:38:17;31.20;84.70
15749;DHT22;7976;52.526;13.326;2022-08-03T12:41:00;31.20;84.60
15749;DHT22;7976;52.526;13.326;2022-08-03T12:43:29;31.20;84.50
15749;DHT22;7976;52.526;13.326;2022-08-03T12:46:15;31.30;84.50
15749;DHT22;7976;52.526;13.326;2022-08-03T12:49:05;31.30;84.40
15749;DHT22;7976;52.526;13.326;2022-08-03T12:51:35;31.20;84.30
15749;DHT22;7976;52.526;13.326;2022-08-03T12:54:05;31.30;84.40
15749;DHT22;7976;52.526;13.326;2022-08-03T12:56:32;31.30;84.60
15749;DHT22;7976;52.526;13.326;2022-08-03T12:58:59;31.40;84.60
15749;DHT22;7976;52.526;13.326;2022-08-03T13:01:35;31.40;84.40
15749;DHT22;7976;52.526;13.326;2022-08-03T13:04:03;31.50;84.30
15749;DHT22;7976;52.526;13.326;2022-08-03T13:06:31;31.50;83.90
15749;DHT22;7976;52.526;13.326;2022-08-03T13:09:03;31.60;83.40
15749;DHT22;7976;52.526;13.326;2022-08-03T13:11:31;31.60;83.40
15749;DHT22;7976;52.526;13.326;2022-08-03T13:13:58;31.70;83.30
15749;DHT22;7976;52.526;13.326;2022-08-03T13:16:27;31.70;83.60
15749;DHT22;7976;52.526;13.326;2022-08-03T13:18:54;31.80;82.70
15749;DHT22;7976;52.526;13.326;2022-08-03T13:21:20;31.80;82.50
15749;DHT22;7976;52.526;13.326;2022-08-03T13:23:47;31.80;82.80
15749;DHT22;7976;52.526;13.326;2022-08-03T13:26:14;31.80;83.30
15749;DHT22;7976;52.526;13.326;2022-08-03T13:28:41;31.80;83.40
15749;DHT22;7976;52.526;13.326;2022-08-03T13:31:08;31.70;83.30
15749;DHT22;7976;52.526;13.326;2022-08-03T13:33:36;31.70;83.50
15749;DHT22;7976;52.526;13.326;2022-08-03T13:36:05;31.70;83.50
15749;DHT22;7976;52.526;13.326;2022-08-03T13:38:32;31.70;83.70
15749;DHT22;7976;52.526;13.326;2022-08-03T13:41:01;31.70;83.30
15749;DHT22;7976;52.526;13.326;2022-08-03T13:43:28;31.70;82.90
15749;DHT22;7976;52.526;13.326;2022-08-03T13:45:55;31.80;83.30
15749;DHT22;7976;52.526;13.326;2022-08-03T13:48:22;31.80;83.20
15749;DHT22;7976;52.526;13.326;2022-08-03T13:50:50;31.80;82.20
15749;DHT22;7976;52.526;13.326;2022-08-03T13:53:18;31.80;82.10
15749;DHT22;7976;52.526;13.326;2022-08-03T13:55:45;31.80;81.90
15749;DHT22;7976;52.526;13.326;2022-08-03T13:58:12;31.90;81.90
15749;DHT22;7976;52.526;13.326;2022-08-03T14:00:38;31.90;82.00
15749;DHT22;7976;52.526;13.326;2022-08-03T14:03:05;31.80;82.40
15749;DHT22;7976;52.526;13.326;2022-08-03T14:05:33;31.80;82.80
15749;DHT22;7976;52.526;13.326;2022-08-03T14:08:04;31.80;81.10
15749;DHT22;7976;52.526;13.326;2022-08-03T14:10:33;31.80;82.20
15749;DHT22;7976;52.526;13.326;2022-08-03T14:13:02;31.80;82.00
15749;DHT22;7976;52.526;13.326;2022-08-03T14:15:29;31.70;81.40
15749;DHT22;7976;52.526;13.326;2022-08-03T14:17:56;31.70;81.60
15749;DHT22;7976;52.526;13.326;2022-08-03T14:20:23;31.70;81.90
15749;DHT22;7976;52.526;13.326;2022-08-03T14:22:50;31.70;81.90
15749;DHT22;7976;52.526;13.326;2022-08-03T14:25:18;31.70;81.90
15749;DHT22;7976;52.526;13.326;2022-08-03T14:27:45;31.70;82.00
15749;DHT22;7976;52.526;13.326;2022-08-03T14:30:12;31.70;82.70
15749;DHT22;7976;52.526;13.326;2022-08-03T14:32:39;31.70;83.10
15749;DHT22;7976;52.526;13.326;2022-08-03T14:35:08;31.60;83.30
15749;DHT22;7976;52.526;13.326;2022-08-03T14:37:35;31.70;83.80
15749;DHT22;7976;52.526;13.326;2022-08-03T14:40:02;31.60;83.80
15749;DHT22;7976;52.526;13.326;2022-08-03T14:42:31;31.60;83.70
15749;DHT22;7976;52.526;13.326;2022-08-03T14:44:58;31.60;83.70
15749;DHT22;7976;52.526;13.326;2022-08-03T14:47:25;31.60;84.10
15749;DHT22;7976;52.526;13.326;2022-08-03T14:49:52;31.70;84.20
15749;DHT22;7976;52.526;13.326;2022-08-03T14:52:19;31.70;84.00
15749;DHT22;7976;52.526;13.326;2022-08-03T14:54:46;31.60;84.00
15749;DHT22;7976;52.526;13.326;2022-08-03T14:57:12;31.60;83.70
15749;DHT22;7976;52.526;13.326;2022-08-03T14:59:41;31.70;83.70
15749;DHT22;7976;52.526;13.326;2022-08-03T15:02:08;31.70;83.60
15749;DHT22;7976;52.526;13.326;2022-08-03T15:04:35;31.70;83.80
15749;DHT22;7976;52.526;13.326;2022-08-03T15:07:02;31.70;83.70
15749;DHT22;7976;52.526;13.326;2022-08-03T15:09:29;31.70;83.90
15749;DHT22;7976;52.526;13.326;2022-08-03T15:11:57;31.60;84.30
15749;DHT22;7976;52.526;13.326;2022-08-03T15:14:24;31.60;83.10
15749;DHT22;7976;52.526;13.326;2022-08-03T15:16:52;31.70;82.50
15749;DHT22;7976;52.526;13.326;2022-08-03T15:19:19;31.70;82.10
15749;DHT22;7976;52.526;13.326;2022-08-03T15:21:45;31.70;81.80
15749;DHT22;7976;52.526;13.326;2022-08-03T15:24:12;31.70;82.00
15749;DHT22;7976;52.526;13.326;2022-08-03T15:26:39;31.70;82.40
15749;DHT22;7976;52.526;13.326;2022-08-03T15:29:06;31.70;82.20
15749;DHT22;7976;52.526;13.326;2022-08-03T15:31:34;31.70;82.30
15749;DHT22;7976;52.526;13.326;2022-08-03T15:34:02;31.60;82.70
15749;DHT22;7976;52.526;13.326;2022-08-03T15:36:30;31.50;83.00
15749;DHT22;7976;52.526;13.326;2022-08-03T15:38:58;31.40;83.30
15749;DHT22;7976;52.526;13.326;2022-08-03T15:41:25;31.40;83.30
15749;DHT22;7976;52.526;13.326;2022-08-03T15:43:52;31.40;83.60
15749;DHT22;7976;52.526;13.326;2022-08-03T15:46:19;31.30;83.50
15749;DHT22;7976;52.526;13.326;2022-08-03T15:48:46;31.30;83.50
15749;DHT22;7976;52.526;13.326;2022-08-03T15:51:14;31.30;83.60